Time;durP1;ratioP1;P1;durP2;ratioP2;P2;SDS_P1;SDS_P2;PMS_P1;PMS_P2;Temp;Humidity;BMP_temperature;BMP_pressure;BME280_temperature;BME280_humidity;BME280_pressure;Samples;Min_cycle;Max_cycle;Signal;HPM_P1;HPM_P2
2024/01/19 00:03:25;;;;;;;53.40;32.00;;;;;;;-1.55;84.97;99361.55;214003;1268;61288;-72
2024/01/19 00:08:18;;;;;;;54.90;33.60;;;;;;;-1.61;84.92;99366.55;213971;1268;62716;-71
2024/01/19 00:13:11;;;;;;;56.30;31.70;;;;;;;-1.70;84.82;99383.48;214028;1268;61332;-71
2024/01/19 00:18:04;;;;;;;57.20;33.60;;;;;;;-1.83;84.83;99398.05;214161;1269;61261;-71
2024/01/19 00:22:58;;;;;;;53.90;31.90;;;;;;;-1.94;85.02;99399.77;214078;1268;61296;-71
2024/01/19 00:27:50;;;;;;;53.00;31.50;;;;;;;-2.03;85.07;99406.48;214082;1268;61332;-71
2024/01/19 00:32:43;;;;;;;47.90;28.90;;;;;;;-2.11;85.07;99413.75;214006;1268;61352;-71
2024/01/19 00:37:36;;;;;;;47.90;29.50;;;;;;;-2.16;85.06;99429.98;214040;1268;61358;-71
2024/01/19 00:42:29;;;;;;;53.50;30.50;;;;;;;-2.21;85.11;99436.69;214142;1270;61398;-71
2024/01/19 00:47:21;;;;;;;55.90;30.60;;;;;;;-2.26;85.10;99441.52;214004;1270;61403;-71
2024/01/19 00:52:14;;;;;;;53.60;31.10;;;;;;;-2.35;84.86;99443.17;214123;1267;61339;-71
2024/01/19 00:57:07;;;;;;;51.30;31.60;;;;;;;-2.42;84.99;99455.05;214005;1268;61427;-71
2024/01/19 01:01:59;;;;;;;51.40;32.70;;;;;;;-2.50;84.89;99473.48;214120;1269;61296;-71
2024/01/19 01:06:52;;;;;;;55.30;32.60;;;;;;;-2.56;85.13;99477.45;214136;1270;73405;-71
2024/01/19 01:11:45;;;;;;;59.60;32.70;;;;;;;-2.58;85.20;99488.05;214120;1269;62945;-70
2024/01/19 01:16:38;;;;;;;57.50;32.80;;;;;;;-2.50;85.47;99499.29;213960;1273;61430;-71
2024/01/19 01:21:31;;;;;;;52.00;30.60;;;;;;;-2.41;85.70;99511.27;214065;1268;61316;-72
2024/01/19 01:26:23;;;;;;;57.40;32.00;;;;;;;-2.34;85.51;99523.69;214003;1268;61387;-71
2024/01/19 01:31:16;;;;;;;49.90;31.20;;;;;;;-2.25;85.59;99526.95;214007;1268;61278;-71
2024/01/19 01:36:09;;;;;;;49.40;27.40;;;;;;;-2.20;85.27;99533.66;213808;1269;174704;-71
2024/01/19 01:41:02;;;;;;;48.10;27.40;;;;;;;-2.18;85.14;99538.00;214033;1268;61315;-71
2024/01/19 01:45:54;;;;;;;45.90;25.60;;;;;;;-2.16;85.05;99550.20;214084;1270;61249;-71
2024/01/19 01:50:48;;;;;;;43.40;24.70;;;;;;;-2.15;85.01;99562.64;214082;1268;61436;-71
2024/01/19 01:55:41;;;;;;;39.60;23.50;;;;;;;-2.13;84.92;99575.61;214038;1268;61263;-72
2024/01/19 02:00:35;;;;;;;36.60;22.50;;;;;;;-2.15;84.64;99580.61;214184;1268;61270;-71
2024/01/19 02:05:28;;;;;;;35.70;20.30;;;;;;;-2.18;84.45;99580.45;214038;1272;61362;-71
2024/01/19 02:10:22;;;;;;;44.00;22.40;;;;;;;-2.21;84.53;99584.25;213943;1268;65986;-71
2024/01/19 02:15:20;;;;;;;38.30;20.50;;;;;;;-2.19;84.44;99601.61;213995;1272;61242;-71
2024/01/19 02:20:13;;;;;;;37.30;20.80;;;;;;;-2.19;84.68;99608.10;214052;1268;73219;-71
2024/01/19 02:25:06;;;;;;;38.10;22.90;;;;;;;-2.18;84.53;99619.34;214039;1268;61271;-71
2024/01/19 02:29:59;;;;;;;38.50;19.40;;;;;;;-2.18;84.38;99622.55;214041;1268;61412;-72
2024/01/19 02:34:52;;;;;;;37.30;21.10;;;;;;;-2.20;84.37;99629.23;214097;1268;61295;-71
2024/01/19 02:39:45;;;;;;;33.20;19.40;;;;;;;-2.22;84.40;99639.84;214036;1268;61279;-71
2024/01/19 02:44:37;;;;;;;41.20;21.30;;;;;;;-2.22;84.58;99642.05;214070;1268;61361;-71
2024/01/19 02:49:30;;;;;;;37.20;21.30;;;;;;;-2.24;84.40;99645.16;214050;1268;61348;-71
2024/01/19 02:54:23;;;;;;;33.40;19.20;;;;;;;-2.24;84.36;99657.55;213976;1268;61277;-71
2024/01/19 02:59:16;;;;;;;30.00;17.00;;;;;;;-2.27;84.20;99668.79;214105;1268;61246;-71
2024/01/19 03:04:09;;;;;;;27.10;14.60;;;;;;;-2.32;84.13;99672.99;214003;1272;61300;-72
2024/01/19 03:09:01;;;;;;;29.80;14.40;;;;;;;-2.36;83.99;99673.42;214063;1268;61229;-71
2024/01/19 03:13:54;;;;;;;25.90;15.00;;;;;;;-2.42;83.80;99687.58;214029;1268;61294;-71
2024/01/19 03:18:47;;;;;;;25.40;14.30;;;;;;;-2.46;83.92;99700.09;213968;1268;61409;-71
2024/01/19 03:23:40;;;;;;;26.30;13.60;;;;;;;-2.49;83.84;99710.28;213946;1268;61241;-71
2024/01/19 03:28:33;;;;;;;35.40;17.60;;;;;;;-2.54;83.61;99718.83;214080;1268;61399;-71
2024/01/19 03:33:26;;;;;;;33.30;16.30;;;;;;;-2.60;83.44;99725.96;214006;1272;67210;-72
2024/01/19 03:38:19;;;;;;;28.20;15.50;;;;;;;-2.68;83.40;99720.80;214046;1268;61384;-71
2024/01/19 03:43:12;;;;;;;30.70;16.10;;;;;;;-2.72;83.39;99735.54;214015;1271;74569;-71
2024/01/19 03:48:05;;;;;;;32.30;16.80;;;;;;;-2.72;83.64;99739.80;214107;1268;61299;-71
2024/01/19 03:52:58;;;;;;;33.20;17.20;;;;;;;-2.72;83.68;99754.20;214107;1268;61276;-72
2024/01/19 03:57:51;;;;;;;34.20;16.00;;;;;;;-2.75;83.62;99766.59;214045;1268;61313;-71
2024/01/19 04:02:43;;;;;;;28.40;15.40;;;;;;;-2.77;83.72;99772.09;214103;1268;61252;-71
2024/01/19 04:07:36;;;;;;;29.30;17.10;;;;;;;-2.79;83.67;99783.98;214075;1268;61415;-71
2024/01/19 04:12:29;;;;;;;31.30;15.10;;;;;;;-2.79;83.70;99800.63;214018;1268;61239;-71
2024/01/19 04:17:22;;;;;;;32.30;16.80;;;;;;;-2.81;83.42;99813.02;214081;1269;61296;-70
2024/01/19 04:22:15;;;;;;;31.10;16.90;;;;;;;-2.85;83.47;99822.52;213906;1268;61307;-71
2024/01/19 04:27:08;;;;;;;39.70;23.90;;;;;;;-2.88;83.43;99830.33;213969;1272;61231;-70
2024/01/19 04:32:00;;;;;;;39.60;21.00;;;;;;;-2.88;83.65;99842.89;214055;1268;61376;-71
2024/01/19 04:36:53;;;;;;;48.40;23.30;;;;;;;-2.94;83.36;99860.02;213939;1268;61273;-70
2024/01/19 04:41:46;;;;;;;46.20;24.40;;;;;;;-3.03;83.15;99875.04;214062;1268;61285;-71
2024/01/19 04:46:38;;;;;;;42.90;20.30;;;;;;;-3.15;83.00;99884.91;214048;1268;71202;-70
2024/01/19 04:51:33;;;;;;;36.10;19.50;;;;;;;-3.22;83.28;99901.61;214028;1271;61312;-71
2024/01/19 04:56:26;;;;;;;30.60;17.60;;;;;;;-3.23;83.22;99907.11;214043;1268;61381;-71
2024/01/19 05:01:19;;;;;;;27.00;14.70;;;;;;;-3.28;82.88;99913.29;213961;1268;61266;-71
2024/01/19 05:06:15;;;;;;;28.70;15.80;;;;;;;-3.33;82.71;99918.56;213978;1272;61332;-70
2024/01/19 05:11:11;;;;;;;25.70;13.30;;;;;;;-3.36;82.94;99922.13;214001;1268;72927;-71
2024/01/19 05:16:04;;;;;;;25.10;13.50;;;;;;;-3.37;83.06;99922.42;214024;1268;61332;-71
2024/01/19 05:20:57;;;;;;;28.90;16.40;;;;;;;-3.33;83.11;99925.05;214038;1268;61259;-71
2024/01/19 05:25:49;;;;;;;27.70;16.10;;;;;;;-3.31;83.01;99930.24;213999;1268;61442;-71
2024/01/19 05:30:42;;;;;;;27.20;13.90;;;;;;;-3.29;83.24;99946.91;214098;1268;61339;-71
2024/01/19 05:35:35;;;;;;;26.40;14.20;;;;;;;-3.32;82.59;99946.74;213970;1268;61278;-70
2024/01/19 05:40:28;;;;;;;20.40;11.80;;;;;;;-3.39;82.74;99945.98;213998;1268;61431;-71
2024/01/19 05:45:21;;;;;;;24.00;12.10;;;;;;;-3.42;82.70;99960.88;214043;1268;61354;-71
2024/01/19 05:50:13;;;;;;;21.60;11.80;;;;;;;-3.47;82.45;99967.75;213979;1268;61470;-71
2024/01/19 05:55:09;;;;;;;21.30;11.30;;;;;;;-3.51;82.49;99971.92;214134;1268;61373;-70
2024/01/19 06:00:02;;;;;;;24.90;12.30;;;;;;;-3.51;82.65;99976.63;214045;1269;74302;-70
2024/01/19 06:05:03;;;;;;;24.70;13.50;;;;;;;-3.51;82.75;99974.76;214109;1268;61285;-70
2024/01/19 06:09:55;;;;;;;21.10;11.30;;;;;;;-3.46;82.86;99983.21;213984;1268;61401;-71
2024/01/19 06:14:48;;;;;;;22.00;13.50;;;;;;;-3.44;82.59;99995.02;214153;1268;61373;-71
2024/01/19 06:19:42;;;;;;;27.50;15.20;;;;;;;-3.43;82.72;99997.27;214059;1268;61902;-70
2024/01/19 06:24:36;;;;;;;29.80;15.70;;;;;;;-3.43;82.76;100006.08;214093;1268;72785;-70
2024/01/19 06:29:29;;;;;;;26.50;14.30;;;;;;;-3.42;82.73;100003.46;214057;1268;61352;-71
2024/01/19 06:34:22;;;;;;;29.30;13.90;;;;;;;-3.39;82.77;100009.02;214054;1268;61325;-71
2024/01/19 06:39:14;;;;;;;29.00;14.60;;;;;;;-3.40;82.29;100016.94;214100;1268;61319;-71
2024/01/19 06:44:09;;;;;;;30.10;16.80;;;;;;;-3.40;82.21;100018.96;213952;1268;61370;-71
2024/01/19 06:49:03;;;;;;;26.40;13.50;;;;;;;-3.47;81.95;100024.00;214072;1268;70247;-71
2024/01/19 06:53:56;;;;;;;27.10;14.20;;;;;;;-3.49;82.17;100032.55;214035;1271;61426;-71
2024/01/19 06:58:49;;;;;;;25.40;14.10;;;;;;;-3.48;81.95;100040.73;213954;1268;67095;-71
2024/01/19 07:03:42;;;;;;;25.70;14.70;;;;;;;-3.42;81.99;100047.17;214076;1268;61252;-70
2024/01/19 07:08:34;;;;;;;27.90;14.90;;;;;;;-3.37;81.96;100056.95;214030;1270;61498;-71
2024/01/19 07:13:27;;;;;;;31.10;14.70;;;;;;;-3.31;81.72;100061.92;214101;1268;61261;-70
2024/01/19 07:18:20;;;;;;;27.60;13.70;;;;;;;-3.28;81.58;100065.67;214133;1268;62020;-71
2024/01/19 07:23:13;;;;;;;25.40;13.00;;;;;;;-3.21;81.29;100073.05;213988;1268;61349;-71
2024/01/19 07:28:06;;;;;;;22.70;13.20;;;;;;;-3.16;81.24;100068.92;213808;1268;61322;-72
2024/01/19 07:32:59;;;;;;;21.80;13.10;;;;;;;-3.10;80.89;100067.60;213990;1268;61398;-71
2024/01/19 07:38:02;;;;;;;20.70;11.80;;;;;;;-3.05;80.55;100066.86;214018;1268;71118;-71
2024/01/19 07:42:55;;;;;;;21.20;12.30;;;;;;;-2.98;80.66;100057.81;214081;1269;61403;-70
2024/01/19 07:47:47;;;;;;;14.30;10.40;;;;;;;-2.86;80.69;100063.95;214084;1268;61278;-70
2024/01/19 07:52:40;;;;;;;20.80;12.40;;;;;;;-2.78;80.45;100066.31;214015;1268;61362;-72
2024/01/19 07:57:33;;;;;;;22.60;12.80;;;;;;;-2.73;80.09;100069.36;214077;1268;61262;-72
2024/01/19 08:02:26;;;;;;;17.50;10.70;;;;;;;-2.65;80.04;100065.70;213993;1268;61377;-72
2024/01/19 08:07:19;;;;;;;17.50;11.00;;;;;;;-2.58;79.75;100063.21;214067;1272;61316;-72
2024/01/19 08:12:12;;;;;;;21.10;12.00;;;;;;;-2.53;79.59;100064.41;214071;1268;61886;-71
2024/01/19 08:17:05;;;;;;;25.20;12.20;;;;;;;-2.44;79.67;100061.52;213946;1268;61281;-71
2024/01/19 08:21:57;;;;;;;21.70;13.20;;;;;;;-2.33;79.40;100059.30;214041;1270;61352;-73
2024/01/19 08:26:50;;;;;;;18.50;9.80;;;;;;;-2.20;79.34;100054.89;214023;1268;61351;-73
2024/01/19 08:31:44;;;;;;;23.80;13.70;;;;;;;-2.16;78.72;100055.50;214099;1268;61251;-72
2024/01/19 08:36:41;;;;;;;20.70;13.20;;;;;;;-2.11;78.78;100060.85;214128;1268;61874;-73
2024/01/19 08:41:43;;;;;;;24.70;13.10;;;;;;;-2.02;78.77;100070.04;214128;1268;61434;-69
2024/01/19 08:46:43;;;;;;;25.00;13.90;;;;;;;-1.99;78.16;100079.69;214034;1268;73720;-71
2024/01/19 08:51:35;;;;;;;23.80;14.30;;;;;;;-1.98;78.22;100081.65;214053;1268;72054;-71
2024/01/19 08:56:28;;;;;;;25.90;13.60;;;;;;;-1.91;78.29;100089.67;214070;1268;61704;-71
2024/01/19 09:01:21;;;;;;;25.50;15.30;;;;;;;-1.77;78.22;100100.29;213979;1271;61284;-72
2024/01/19 09:06:14;;;;;;;23.40;14.00;;;;;;;-1.65;78.01;100100.44;214080;1268;61360;-72
2024/01/19 09:11:08;;;;;;;22.80;13.30;;;;;;;-1.62;77.83;100101.98;214036;1268;72092;-71
2024/01/19 09:16:01;;;;;;;23.70;14.50;;;;;;;-1.62;77.71;100102.14;213816;1268;72435;-72
2024/01/19 09:20:54;;;;;;;22.40;13.80;;;;;;;-1.54;77.66;100110.27;214220;1268;61399;-72
2024/01/19 09:25:46;;;;;;;20.80;14.20;;;;;;;-1.49;77.52;100110.68;214068;1268;61525;-73
2024/01/19 09:30:39;;;;;;;22.70;13.20;;;;;;;-1.44;77.44;100111.16;214120;1268;61351;-72
2024/01/19 09:35:35;;;;;;;20.40;12.40;;;;;;;-1.39;77.16;100115.86;214083;1268;61893;-72
2024/01/19 09:40:28;;;;;;;23.20;14.60;;;;;;;-1.27;76.92;100129.09;214014;1268;72701;-73
2024/01/19 09:45:23;;;;;;;22.80;12.90;;;;;;;-1.17;76.81;100127.75;213878;1268;61352;-73
2024/01/19 09:50:20;;;;;;;26.30;14.90;;;;;;;-1.18;76.57;100126.36;213967;1268;68151;-73
2024/01/19 09:55:13;;;;;;;27.00;15.70;;;;;;;-1.24;76.68;100132.50;213987;1268;61861;-74
2024/01/19 10:00:07;;;;;;;24.90;14.00;;;;;;;-1.24;76.78;100131.45;213953;1270;61304;-73
2024/01/19 10:05:04;;;;;;;24.80;15.70;;;;;;;-1.26;76.56;100130.33;213854;1268;71404;-73
2024/01/19 10:09:57;;;;;;;25.10;15.60;;;;;;;-1.27;76.75;100131.79;214033;1268;61277;-73
2024/01/19 10:14:50;;;;;;;27.40;15.60;;;;;;;-1.24;76.68;100134.19;214033;1268;66141;-75
2024/01/19 10:19:44;;;;;;;22.90;14.20;;;;;;;-1.10;76.93;100127.77;213973;1268;61578;-73
2024/01/19 10:24:37;;;;;;;23.90;12.80;;;;;;;-1.02;76.41;100127.02;214031;1268;74675;-75
2024/01/19 10:29:31;;;;;;;25.40;14.20;;;;;;;-0.87;76.36;100133.09;213992;1268;61322;-73
2024/01/19 10:34:26;;;;;;;22.10;14.50;;;;;;;-0.49;76.09;100127.06;213997;1268;61827;-74
2024/01/19 10:39:29;;;;;;;24.30;15.10;;;;;;;1.03;73.99;100123.48;214083;1269;67119;-73
2024/01/19 10:44:22;;;;;;;22.80;15.70;;;;;;;3.44;71.41;100117.71;214003;1273;61330;-72
2024/01/19 10:49:16;;;;;;;17.80;14.00;;;;;;;5.23;68.36;100110.14;214042;1268;74801;-72
2024/01/19 10:54:15;;;;;;;22.30;15.20;;;;;;;5.01;67.01;100107.10;214010;1268;72531;-72
2024/01/19 10:59:12;;;;;;;21.20;15.50;;;;;;;5.67;67.18;100103.96;213996;1272;61246;-71
2024/01/19 11:04:09;;;;;;;24.90;17.80;;;;;;;6.92;66.07;100098.81;214079;1268;66686;-71
2024/01/19 11:09:06;;;;;;;20.30;16.40;;;;;;;7.76;64.53;100092.20;214126;1268;61751;-71
2024/01/19 11:14:02;;;;;;;24.00;17.20;;;;;;;7.66;63.61;100096.85;214130;1268;73468;-71
2024/01/19 11:18:56;;;;;;;20.90;15.90;;;;;;;8.35;63.12;100095.15;213971;1272;72423;-72
2024/01/19 11:23:49;;;;;;;17.80;14.40;;;;;;;9.21;61.23;100092.74;214060;1270;61374;-72
2024/01/19 11:29:00;;;;;;;21.60;16.10;;;;;;;8.27;62.03;100094.63;214124;1268;65804;-72
2024/01/19 11:33:53;;;;;;;21.50;15.90;;;;;;;7.27;63.49;100099.55;214013;1268;61916;-71
2024/01/19 11:38:48;;;;;;;21.10;15.40;;;;;;;7.33;61.90;100099.50;214080;1268;74619;-72
2024/01/19 11:43:43;;;;;;;19.30;15.70;;;;;;;8.25;60.89;100101.86;214054;1268;72844;-72
2024/01/19 11:48:46;;;;;;;21.30;15.90;;;;;;;8.43;59.56;100098.89;213929;1268;61396;-71
2024/01/19 11:53:59;;;;;;;17.90;15.20;;;;;;;8.29;59.71;100102.63;213986;1268;65974;-71
2024/01/19 11:58:54;;;;;;;19.70;14.90;;;;;;;7.81;60.55;100098.00;213978;1268;61292;-70
2024/01/19 12:03:52;;;;;;;21.70;16.40;;;;;;;7.88;59.79;100095.70;214088;1268;74342;-71
2024/01/19 12:08:45;;;;;;;26.40;16.10;;;;;;;7.25;61.22;100097.27;214054;1268;72040;-71
2024/01/19 12:13:42;;;;;;;25.90;15.00;;;;;;;6.84;60.40;100102.25;214071;1271;61939;-71
2024/01/19 12:18:46;;;;;;;21.90;15.50;;;;;;;6.60;60.54;100102.91;214077;1272;65828;-72
2024/01/19 12:23:41;;;;;;;24.30;15.90;;;;;;;6.14;61.39;100096.96;214089;1268;61252;-72
2024/01/19 12:28:34;;;;;;;23.60;15.00;;;;;;;5.22;62.15;100094.34;214206;1268;73417;-71
2024/01/19 12:33:28;;;;;;;19.90;14.60;;;;;;;4.14;63.23;100097.70;214069;1272;61260;-71
2024/01/19 12:38:21;;;;;;;20.90;13.70;;;;;;;3.54;64.24;100104.77;214056;1268;61395;-72
2024/01/19 12:43:14;;;;;;;22.80;14.60;;;;;;;3.12;65.01;100112.16;214082;1272;61278;-71
2024/01/19 12:48:10;;;;;;;24.90;16.20;;;;;;;2.70;65.56;100114.34;214070;1273;61265;-70
2024/01/19 12:53:17;;;;;;;23.90;13.00;;;;;;;2.45;66.41;100116.08;213996;1268;72426;-71
2024/01/19 12:58:09;;;;;;;20.30;14.20;;;;;;;2.21;67.08;100118.23;214001;1268;61376;-71
2024/01/19 13:03:03;;;;;;;19.60;12.70;;;;;;;1.98;67.13;100127.50;214017;1270;63376;-70
2024/01/19 13:08:10;;;;;;;17.80;12.30;;;;;;;1.73;67.27;100137.73;214040;1268;66797;-71
2024/01/19 13:13:08;;;;;;;18.70;10.00;;;;;;;1.51;67.67;100152.83;214068;1270;61229;-75
2024/01/19 13:18:12;;;;;;;15.50;10.00;;;;;;;1.32;68.22;100156.80;213884;1273;74386;-70
2024/01/19 13:23:07;;;;;;;14.30;10.20;;;;;;;1.19;68.40;100157.39;213992;1271;72217;-72
2024/01/19 13:28:00;;;;;;;17.50;9.50;;;;;;;1.03;68.91;100161.25;214104;1268;61233;-71
2024/01/19 13:32:57;;;;;;;17.00;10.90;;;;;;;0.85;68.85;100173.90;213974;1273;66117;-72
2024/01/19 13:37:51;;;;;;;20.10;11.80;;;;;;;0.74;69.20;100175.61;213682;1268;139561;-71
2024/01/19 13:42:44;;;;;;;19.80;11.00;;;;;;;0.65;69.50;100172.64;214074;1268;74533;-70
2024/01/19 13:47:38;;;;;;;18.40;10.40;;;;;;;0.59;70.15;100182.20;213913;1268;61261;-71
2024/01/19 13:52:32;;;;;;;25.50;12.50;;;;;;;0.49;70.24;100183.26;213943;1268;61369;-73
2024/01/19 13:57:25;;;;;;;22.00;12.30;;;;;;;0.37;70.18;100188.50;214026;1272;65802;-73
2024/01/19 14:02:18;;;;;;;17.10;10.60;;;;;;;0.26;70.11;100192.22;213882;1270;61229;-73
2024/01/19 14:07:17;;;;;;;19.80;11.90;;;;;;;0.15;70.39;100200.35;213993;1272;75495;-72
2024/01/19 14:12:10;;;;;;;16.50;10.40;;;;;;;0.04;70.61;100216.31;213683;1271;71391;-73
2024/01/19 14:17:03;;;;;;;20.30;12.10;;;;;;;-0.03;71.01;100222.81;213792;1268;61261;-75
2024/01/19 14:21:56;;;;;;;23.10;12.60;;;;;;;-0.09;71.21;100228.42;213960;1268;66910;-75
2024/01/19 14:26:49;;;;;;;22.60;13.70;;;;;;;-0.15;71.40;100232.73;213974;1268;61285;-74
2024/01/19 14:31:42;;;;;;;19.70;12.10;;;;;;;-0.24;71.48;100242.64;213954;1271;74602;-75
2024/01/19 14:36:36;;;;;;;23.00;12.40;;;;;;;-0.31;71.79;100257.23;213948;1268;72794;-74
2024/01/19 14:41:29;;;;;;;23.20;12.60;;;;;;;-0.35;72.12;100264.86;213980;1272;61341;-73
2024/01/19 14:46:22;;;;;;;23.30;13.30;;;;;;;-0.39;72.28;100274.20;214092;1270;65998;-74
2024/01/19 14:51:15;;;;;;;20.30;11.10;;;;;;;-0.45;72.27;100274.77;214109;1272;61288;-74
2024/01/19 14:56:09;;;;;;;16.00;9.00;;;;;;;-0.50;72.50;100282.65;214022;1271;72878;-74
2024/01/19 15:01:02;;;;;;;19.40;9.20;;;;;;;-0.57;72.52;100286.01;214126;1270;71441;-74
2024/01/19 15:05:56;;;;;;;17.40;10.30;;;;;;;-0.64;72.77;100291.74;214063;1270;61373;-74
2024/01/19 15:10:49;;;;;;;18.40;11.20;;;;;;;-0.70;72.98;100302.85;214121;1272;67087;-74
2024/01/19 15:15:42;;;;;;;22.00;11.40;;;;;;;-0.73;73.09;100310.69;214187;1270;61359;-74
2024/01/19 15:20:35;;;;;;;24.10;11.00;;;;;;;-0.77;73.27;100319.48;214096;1272;61494;-74
2024/01/19 15:25:28;;;;;;;22.60;12.90;;;;;;;-0.83;73.36;100333.95;214168;1270;63871;-74
2024/01/19 15:30:21;;;;;;;18.40;11.50;;;;;;;-0.90;73.43;100338.98;214133;1270;61379;-74
2024/01/19 15:35:25;;;;;;;20.10;13.40;;;;;;;-0.96;73.42;100352.08;214124;1270;66001;-74
2024/01/19 15:40:18;;;;;;;28.30;14.50;;;;;;;-1.02;73.46;100354.51;214201;1268;61288;-74
2024/01/19 15:45:11;;;;;;;32.90;14.30;;;;;;;-1.05;73.64;100367.92;214124;1271;61296;-74
2024/01/19 15:50:04;;;;;;;25.40;13.90;;;;;;;-1.10;73.39;100372.38;214081;1268;61411;-75
2024/01/19 15:54:57;;;;;;;27.90;14.90;;;;;;;-1.13;73.59;100376.63;214140;1270;61264;-74
2024/01/19 15:59:50;;;;;;;20.30;13.40;;;;;;;-1.15;73.77;100386.91;214109;1270;61324;-74
2024/01/19 16:04:43;;;;;;;24.80;13.90;;;;;;;-1.16;73.97;100389.07;214068;1270;61373;-74
2024/01/19 16:09:36;;;;;;;33.90;15.50;;;;;;;-1.19;73.92;100393.83;214096;1270;61267;-74
2024/01/19 16:14:28;;;;;;;41.80;17.90;;;;;;;-1.20;73.93;100398.34;214034;1268;61393;-74
2024/01/19 16:19:21;;;;;;;24.70;13.80;;;;;;;-1.22;73.95;100397.89;214114;1269;61380;-74
2024/01/19 16:24:17;;;;;;;21.60;14.00;;;;;;;-1.24;73.91;100408.48;214072;1268;61302;-75
2024/01/19 16:29:10;;;;;;;19.50;12.30;;;;;;;-1.23;73.96;100416.55;214106;1272;61349;-75
2024/01/19 16:34:09;;;;;;;24.20;12.40;;;;;;;-1.22;73.89;100421.01;214166;1270;61310;-74
2024/01/19 16:39:02;;;;;;;20.90;11.90;;;;;;;-1.23;73.85;100426.20;214127;1272;71853;-75
2024/01/19 16:44:01;;;;;;;20.30;13.60;;;;;;;-1.25;74.04;100431.92;214134;1268;61327;-74
2024/01/19 16:48:54;;;;;;;22.60;13.20;;;;;;;-1.25;74.08;100435.68;214104;1272;67179;-75
2024/01/19 16:53:47;;;;;;;22.80;11.60;;;;;;;-1.25;74.32;100444.00;214170;1269;61387;-74
2024/01/19 16:58:40;;;;;;;16.10;10.40;;;;;;;-1.24;74.30;100451.84;214077;1273;61374;-76
2024/01/19 17:03:33;;;;;;;18.40;10.20;;;;;;;-1.24;74.31;100459.86;214113;1270;61958;-74
2024/01/19 17:08:25;;;;;;;16.80;10.80;;;;;;;-1.23;74.34;100464.83;214058;1268;61304;-74
2024/01/19 17:13:18;;;;;;;18.90;11.70;;;;;;;-1.24;74.22;100469.52;214156;1272;61441;-74
2024/01/19 17:18:11;;;;;;;17.80;9.50;;;;;;;-1.25;74.41;100475.93;214058;1270;61279;-74
2024/01/19 17:23:06;;;;;;;17.40;9.80;;;;;;;-1.25;74.30;100484.48;214155;1270;73740;-74
2024/01/19 17:28:02;;;;;;;17.00;10.00;;;;;;;-1.24;74.42;100495.38;214096;1270;71475;-74
2024/01/19 17:32:56;;;;;;;22.60;10.80;;;;;;;-1.23;74.53;100492.04;214137;1271;61288;-74
2024/01/19 17:37:50;;;;;;;16.30;9.80;;;;;;;-1.22;74.61;100492.64;214147;1269;65869;-74
2024/01/19 17:42:43;;;;;;;16.40;10.00;;;;;;;-1.21;74.64;100496.96;214115;1270;61278;-74
2024/01/19 17:47:36;;;;;;;20.20;8.70;;;;;;;-1.21;74.72;100491.70;214149;1270;61274;-75
2024/01/19 17:52:38;;;;;;;15.90;10.60;;;;;;;-1.20;74.77;100505.88;214154;1268;61635;-75
2024/01/19 17:57:31;;;;;;;17.10;10.40;;;;;;;-1.20;75.00;100513.36;214111;1271;61304;-74
2024/01/19 18:02:23;;;;;;;22.50;13.20;;;;;;;-1.20;74.95;100515.38;214127;1273;61302;-75
2024/01/19 18:07:16;;;;;;;30.30;14.20;;;;;;;-1.21;75.15;100523.34;214125;1268;61293;-74
2024/01/19 18:12:09;;;;;;;20.80;15.10;;;;;;;-1.21;75.34;100526.86;214092;1272;61242;-75
2024/01/19 18:17:02;;;;;;;19.20;11.60;;;;;;;-1.21;75.53;100533.16;214137;1268;63585;-74
2024/01/19 18:21:55;;;;;;;20.40;12.10;;;;;;;-1.21;75.54;100533.20;214104;1269;61533;-74
2024/01/19 18:26:48;;;;;;;20.40;13.30;;;;;;;-1.20;75.71;100545.15;214144;1271;61283;-74
2024/01/19 18:31:44;;;;;;;23.80;14.10;;;;;;;-1.19;75.77;100559.31;214198;1269;61377;-75
2024/01/19 18:36:39;;;;;;;26.00;14.80;;;;;;;-1.19;75.86;100567.30;214138;1268;74371;-74
2024/01/19 18:41:32;;;;;;;20.10;13.20;;;;;;;-1.20;76.01;100571.20;214067;1269;74174;-74
2024/01/19 18:46:25;;;;;;;25.80;14.20;;;;;;;-1.19;75.99;100573.23;214140;1268;61267;-74
2024/01/19 18:51:20;;;;;;;22.60;14.00;;;;;;;-1.19;76.14;100576.35;214100;1270;61280;-74
2024/01/19 18:56:15;;;;;;;25.10;14.80;;;;;;;-1.18;76.15;100583.20;214122;1270;61348;-75
2024/01/19 19:01:07;;;;;;;20.40;13.40;;;;;;;-1.17;76.34;100592.09;214132;1268;61350;-75
2024/01/19 19:06:03;;;;;;;22.30;14.70;;;;;;;-1.17;76.39;100599.08;214119;1271;70587;-75
2024/01/19 19:10:56;;;;;;;21.10;13.90;;;;;;;-1.17;76.41;100603.68;214084;1270;61425;-74
2024/01/19 19:15:50;;;;;;;23.50;14.20;;;;;;;-1.17;76.42;100611.00;214038;1268;65717;-74
2024/01/19 19:20:43;;;;;;;22.90;13.00;;;;;;;-1.17;76.50;100619.17;214108;1270;61450;-75
2024/01/19 19:25:36;;;;;;;22.90;15.40;;;;;;;-1.18;76.57;100630.67;214170;1268;72392;-75
2024/01/19 19:30:31;;;;;;;23.50;14.20;;;;;;;-1.19;76.60;100631.44;214078;1268;61367;-74
2024/01/19 19:35:24;;;;;;;18.80;13.40;;;;;;;-1.19;76.71;100631.62;214142;1272;61401;-75
2024/01/19 19:40:18;;;;;;;24.10;13.60;;;;;;;-1.20;76.62;100636.02;214029;1269;61348;-75
2024/01/19 19:45:11;;;;;;;20.30;12.10;;;;;;;-1.22;76.64;100642.30;214116;1268;61326;-75
2024/01/19 19:50:05;;;;;;;24.70;13.40;;;;;;;-1.24;76.67;100650.88;214140;1268;74523;-75
2024/01/19 19:54:58;;;;;;;19.60;12.20;;;;;;;-1.26;76.71;100654.42;214061;1268;71883;-74
2024/01/19 19:59:51;;;;;;;19.30;12.80;;;;;;;-1.33;76.66;100659.66;214167;1268;61274;-74
2024/01/19 20:04:43;;;;;;;21.20;13.10;;;;;;;-1.45;76.55;100670.39;214181;1268;70542;-74
2024/01/19 20:09:36;;;;;;;19.30;13.10;;;;;;;-1.60;76.72;100675.80;214053;1268;61347;-74
2024/01/19 20:14:29;;;;;;;19.00;13.80;;;;;;;-1.73;76.91;100687.84;214119;1271;61307;-75
2024/01/19 20:19:26;;;;;;;19.70;13.90;;;;;;;-1.84;77.09;100690.66;214171;1268;72550;-74
2024/01/19 20:24:19;;;;;;;22.40;13.80;;;;;;;-1.90;77.27;100695.02;214142;1268;61281;-75
2024/01/19 20:29:12;;;;;;;18.20;11.70;;;;;;;-1.97;77.23;100692.20;214167;1268;61363;-75
2024/01/19 20:34:05;;;;;;;19.90;10.70;;;;;;;-2.04;77.23;100689.86;214148;1268;61304;-75
2024/01/19 20:38:58;;;;;;;22.50;12.40;;;;;;;-2.11;77.35;100695.13;213989;1272;61319;-74
2024/01/19 20:43:51;;;;;;;19.70;11.60;;;;;;;-2.16;77.41;100704.17;214178;1268;61316;-74
2024/01/19 20:48:43;;;;;;;22.30;13.50;;;;;;;-2.16;77.62;100712.96;214112;1267;61283;-75
2024/01/19 20:53:36;;;;;;;15.90;9.50;;;;;;;-2.12;77.78;100715.34;214128;1269;61338;-74
2024/01/19 20:58:29;;;;;;;21.00;10.70;;;;;;;-2.06;77.49;100712.34;214167;1268;61382;-74
2024/01/19 21:03:22;;;;;;;17.50;9.90;;;;;;;-2.02;77.61;100718.55;214112;1272;61298;-75
2024/01/19 21:08:14;;;;;;;20.10;10.20;;;;;;;-1.98;77.51;100726.77;214105;1272;61312;-74
2024/01/19 21:13:07;;;;;;;17.70;11.00;;;;;;;-1.96;77.37;100722.35;214061;1268;61280;-75
2024/01/19 21:18:00;;;;;;;14.30;9.20;;;;;;;-1.96;77.28;100721.84;214170;1268;61411;-75
2024/01/19 21:22:53;;;;;;;12.90;8.70;;;;;;;-1.97;77.32;100728.25;214201;1268;61661;-74
2024/01/19 21:27:46;;;;;;;18.70;10.00;;;;;;;-1.93;77.29;100737.46;214089;1268;61410;-74
2024/01/19 21:32:39;;;;;;;17.80;9.30;;;;;;;-1.90;77.15;100742.91;213981;1268;61261;-74
2024/01/19 21:37:32;;;;;;;13.30;9.40;;;;;;;-1.88;77.16;100749.36;214028;1268;61510;-75
2024/01/19 21:42:26;;;;;;;16.60;10.20;;;;;;;-1.86;77.05;100758.65;214083;1268;61396;-74
2024/01/19 21:47:19;;;;;;;17.60;9.40;;;;;;;-1.92;77.06;100766.96;214014;1272;61305;-75
2024/01/19 21:52:13;;;;;;;13.90;8.90;;;;;;;-2.01;77.03;100767.89;214070;1270;61284;-74
2024/01/19 21:57:05;;;;;;;13.80;8.50;;;;;;;-2.10;77.14;100767.91;213841;1268;72420;-74
2024/01/19 22:01:58;;;;;;;14.90;8.20;;;;;;;-2.19;77.22;100773.08;214252;1268;61584;-75
2024/01/19 22:06:51;;;;;;;13.80;8.60;;;;;;;-2.26;77.31;100777.99;213983;1268;61278;-74